Time;durP1;ratioP1;P1;durP2;ratioP2;P2;SDS_P1;SDS_P2;PMS_P1;PMS_P2;Temp;Humidity;BMP_temperature;BMP_pressure;BME280_temperature;BME280_humidity;BME280_pressure;Samples;Min_cycle;Max_cycle;Signal;HPM_P1;HPM_P2
2024/03/25 00:01:57;;;;;;;3.03;2.53;;;;;;;;;;10278793;28;20075;-59
2024/03/25 00:06:54;;;;;;;3.85;2.38;;;;;;;;;;10279107;28;20084;-58
2024/03/25 00:11:54;;;;;;;3.13;2.65;;;;;;;;;;10272392;28;20092;-58
2024/03/25 00:16:51;;;;;;;3.58;3.28;;;;;;;;;;10283579;28;20109;-60
2024/03/25 00:21:50;;;;;;;3.45;2.85;;;;;;;;;;10286156;28;20071;-59
2024/03/25 00:26:47;;;;;;;3.10;2.90;;;;;;;;;;10288432;28;20068;-58
2024/03/25 00:31:45;;;;;;;3.42;3.13;;;;;;;;;;10287376;28;20072;-59
2024/03/25 00:36:42;;;;;;;3.67;3.38;;;;;;;;;;10276536;28;20073;-59
2024/03/25 00:41:41;;;;;;;4.60;4.00;;;;;;;;;;10286301;28;20549;-59
2024/03/25 00:46:41;;;;;;;4.07;3.60;;;;;;;;;;10273610;28;20069;-59
2024/03/25 00:51:38;;;;;;;3.50;3.17;;;;;;;;;;10279056;28;20493;-57
2024/03/25 00:56:36;;;;;;;3.10;2.80;;;;;;;;;;10278969;28;20056;-60
2024/03/25 01:01:35;;;;;;;3.65;3.20;;;;;;;;;;10282296;28;20076;-59
2024/03/25 01:06:33;;;;;;;3.35;3.05;;;;;;;;;;10281319;28;20068;-59
2024/03/25 01:11:30;;;;;;;5.22;3.35;;;;;;;;;;10282412;28;20080;-57
2024/03/25 01:16:28;;;;;;;4.13;3.58;;;;;;;;;;10278902;28;20060;-58
2024/03/25 01:21:27;;;;;;;4.75;3.30;;;;;;;;;;10276613;28;20068;-58
2024/03/25 01:26:24;;;;;;;5.07;3.80;;;;;;;;;;10275404;28;20064;-59
2024/03/25 01:31:21;;;;;;;3.95;3.53;;;;;;;;;;10275127;28;20063;-59
2024/03/25 01:36:19;;;;;;;3.22;2.92;;;;;;;;;;10274495;28;20080;-58
2024/03/25 01:41:22;;;;;;;3.72;3.30;;;;;;;;;;10295854;28;20067;-58
2024/03/25 01:46:21;;;;;;;4.15;3.08;;;;;;;;;;10278140;28;20068;-58
2024/03/25 01:51:19;;;;;;;3.28;3.03;;;;;;;;;;10282701;28;20072;-58
2024/03/25 01:56:19;;;;;;;3.60;3.30;;;;;;;;;;10274413;28;20084;-58
2024/03/25 02:01:17;;;;;;;3.33;3.03;;;;;;;;;;10273695;28;20477;-59
2024/03/25 02:06:16;;;;;;;4.35;3.63;;;;;;;;;;10277062;28;20552;-57
2024/03/25 02:11:14;;;;;;;4.72;3.80;;;;;;;;;;10274673;28;20467;-58
2024/03/25 02:16:13;;;;;;;4.22;3.85;;;;;;;;;;10276754;28;20467;-58
2024/03/25 02:21:10;;;;;;;5.00;4.22;;;;;;;;;;10274418;28;20092;-59
2024/03/25 02:26:09;;;;;;;4.55;4.15;;;;;;;;;;10283467;28;20086;-58
2024/03/25 02:31:06;;;;;;;5.10;4.65;;;;;;;;;;10283339;28;20061;-58
2024/03/25 02:36:04;;;;;;;5.35;4.95;;;;;;;;;;10280428;28;20084;-57
2024/03/25 02:41:01;;;;;;;4.93;4.53;;;;;;;;;;10283352;28;20472;-59
2024/03/25 02:46:00;;;;;;;5.47;4.97;;;;;;;;;;10285384;28;20469;-58
2024/03/25 02:50:58;;;;;;;5.45;4.95;;;;;;;;;;10289291;28;20080;-59
2024/03/25 02:55:55;;;;;;;5.45;4.95;;;;;;;;;;10287666;28;20076;-55
2024/03/25 03:00:52;;;;;;;5.32;4.82;;;;;;;;;;10281268;28;20072;-57
2024/03/25 03:05:51;;;;;;;7.03;6.32;;;;;;;;;;10287231;28;20086;-57
2024/03/25 03:10:49;;;;;;;6.82;6.20;;;;;;;;;;10280160;28;20077;-58
2024/03/25 03:15:46;;;;;;;6.13;5.55;;;;;;;;;;10283642;28;20474;-57
2024/03/25 03:20:44;;;;;;;6.53;5.90;;;;;;;;;;10278071;28;20071;-59
2024/03/25 03:25:43;;;;;;;9.48;7.25;;;;;;;;;;10289857;28;20695;-58
2024/03/25 03:30:40;;;;;;;8.57;6.88;;;;;;;;;;10280207;28;20075;-57
2024/03/25 03:35:37;;;;;;;7.93;7.13;;;;;;;;;;10278077;28;20099;-58
2024/03/25 03:40:35;;;;;;;6.90;6.22;;;;;;;;;;10279881;28;20075;-58
2024/03/25 03:45:35;;;;;;;10.60;7.88;;;;;;;;;;10279621;28;20079;-58
2024/03/25 03:50:32;;;;;;;9.18;8.15;;;;;;;;;;10285781;28;20276;-56
2024/03/25 03:55:30;;;;;;;7.97;7.07;;;;;;;;;;10278350;28;20071;-59
2024/03/25 04:00:27;;;;;;;6.78;6.00;;;;;;;;;;10279514;28;20076;-59
2024/03/25 04:05:29;;;;;;;7.97;7.10;;;;;;;;;;10277358;28;20080;-58
2024/03/25 04:10:28;;;;;;;8.02;5.57;;;;;;;;;;10278298;28;20080;-57
2024/03/25 04:15:26;;;;;;;6.20;5.63;;;;;;;;;;10279373;28;20071;-58
2024/03/25 04:20:23;;;;;;;6.05;5.45;;;;;;;;;;10278765;28;20091;-58
2024/03/25 04:25:22;;;;;;;5.63;5.05;;;;;;;;;;10287003;28;20366;-58
2024/03/25 04:30:20;;;;;;;3.72;3.35;;;;;;;;;;10277852;28;20062;-58
2024/03/25 04:35:17;;;;;;;4.70;4.30;;;;;;;;;;10279662;28;20061;-59
